createdAt,value
2022-08-20T00:00:25.615Z,21.58
2022-08-20T00:02:59.053Z,20.92
2022-08-20T00:05:32.955Z,17.05
2022-08-20T00:08:00.348Z,21.17
2022-08-20T00:10:28.583Z,22.02
2022-08-20T00:12:55.588Z,21.70
2022-08-20T00:15:32.617Z,26.30
2022-08-20T00:17:59.633Z,28.00
2022-08-20T00:20:29.266Z,29.83
2022-08-20T00:22:57.616Z,28.40
2022-08-20T00:25:25.950Z,28.42
2022-08-20T00:27:52.430Z,29.63
2022-08-20T00:30:18.852Z,32.88
2022-08-20T00:32:47.563Z,32.58
2022-08-20T00:35:17.005Z,29.92
2022-08-20T00:37:43.922Z,36.42
2022-08-20T00:40:22.888Z,34.85
2022-08-20T00:42:57.427Z,35.38
2022-08-20T00:45:26.236Z,31.73
2022-08-20T00:47:55.251Z,40.17
2022-08-20T00:50:28.160Z,37.58
2022-08-20T00:52:54.794Z,35.85
2022-08-20T00:55:24.947Z,43.00
2022-08-20T00:58:01.076Z,43.88
2022-08-20T01:00:38.275Z,44.60
2022-08-20T01:03:09.761Z,48.65
2022-08-20T01:05:37.641Z,46.20
2022-08-20T01:08:04.678Z,43.00
2022-08-20T01:10:35.453Z,44.47
2022-08-20T01:13:08.357Z,42.33
2022-08-20T01:15:34.783Z,40.55
2022-08-20T01:18:01.808Z,31.90
2022-08-20T01:20:32.343Z,22.42
2022-08-20T01:23:29.775Z,11.63
2022-08-20T01:26:05.977Z,18.55
2022-08-20T01:28:57.322Z,28.83
2022-08-20T01:31:26.634Z,29.95
2022-08-20T01:33:54.957Z,15.38
2022-08-20T01:36:35.181Z,4.25
2022-08-20T01:39:03.353Z,6.78
2022-08-20T01:41:47.960Z,5.97
2022-08-20T01:44:18.440Z,9.10
2022-08-20T01:46:46.612Z,4.10
2022-08-20T01:49:23.145Z,6.90
2022-08-20T01:51:54.802Z,4.15
2022-08-20T01:54:21.943Z,5.00
2022-08-20T01:56:53.190Z,5.38
2022-08-20T01:59:19.786Z,7.53
2022-08-20T02:01:47.148Z,5.35
2022-08-20T02:04:15.564Z,5.90
2022-08-20T02:06:55.893Z,4.35
2022-08-20T02:09:25.503Z,7.35
2022-08-20T02:11:53.227Z,5.60
2022-08-20T02:14:20.208Z,6.00
2022-08-20T02:16:54.464Z,6.15
2022-08-20T02:19:31.693Z,9.18
2022-08-20T02:22:00.845Z,12.30
2022-08-20T02:24:27.304Z,11.00
2022-08-20T02:26:54.566Z,12.02
2022-08-20T02:29:21.012Z,20.52
2022-08-20T02:32:32.668Z,21.60
2022-08-20T02:34:36.782Z,26.55
2022-08-20T02:37:05.246Z,27.17
2022-08-20T02:39:32.036Z,26.45
2022-08-20T02:41:58.534Z,28.00
2022-08-20T02:44:25.081Z,26.33
2022-08-20T02:46:51.508Z,27.00
2022-08-20T02:49:18.513Z,26.63
2022-08-20T02:51:45.726Z,29.70
2022-08-20T02:54:12.524Z,33.20
2022-08-20T02:56:39.321Z,33.17
2022-08-20T02:59:05.997Z,28.92
2022-08-20T03:01:32.981Z,26.08
2022-08-20T03:04:00.092Z,29.70
2022-08-20T03:06:27.272Z,25.40
2022-08-20T03:08:54.332Z,24.42
2022-08-20T03:11:20.760Z,18.83
2022-08-20T03:13:47.481Z,21.40
2022-08-20T03:16:14.284Z,19.73
2022-08-20T03:18:44.152Z,17.30
2022-08-20T03:21:11.816Z,21.25
2022-08-20T03:23:41.920Z,21.52
2022-08-20T03:26:10.691Z,22.95
2022-08-20T03:28:37.853Z,29.23
2022-08-20T03:31:05.542Z,31.77
2022-08-20T03:33:32.356Z,32.63
2022-08-20T03:35:58.936Z,36.63
2022-08-20T03:38:29.239Z,32.33
2022-08-20T03:41:00.817Z,35.80
2022-08-20T03:43:27.291Z,31.73
2022-08-20T03:45:53.700Z,36.50
2022-08-20T03:48:20.878Z,32.63
2022-08-20T03:50:48.867Z,37.42
2022-08-20T03:53:15.691Z,36.28
2022-08-20T03:55:46.056Z,34.17
2022-08-20T03:58:34.911Z,35.47
2022-08-20T04:01:02.612Z,38.70
2022-08-20T04:03:29.092Z,39.70
2022-08-20T04:05:55.865Z,37.95
2022-08-20T04:08:32.156Z,41.67
2022-08-20T04:10:59.573Z,39.25
2022-08-20T04:13:27.832Z,37.08
2022-08-20T04:15:55.653Z,39.42
2022-08-20T04:18:24.238Z,38.42
2022-08-20T04:20:51.846Z,38.80
2022-08-20T04:23:18.482Z,41.17
2022-08-20T04:25:45.575Z,43.55
2022-08-20T04:28:15.837Z,36.85
2022-08-20T04:30:43.325Z,40.33
2022-08-20T04:33:13.889Z,39.92
2022-08-20T04:35:45.736Z,36.35
2022-08-20T04:38:15.357Z,39.45
2022-08-20T04:40:53.833Z,38.88
2022-08-20T04:43:22.878Z,41.03
2022-08-20T04:45:51.864Z,34.10
2022-08-20T04:48:19.471Z,43.20
2022-08-20T04:50:46.927Z,42.03
2022-08-20T04:53:17.665Z,47.83
2022-08-20T04:55:45.930Z,38.88
2022-08-20T04:58:24.431Z,41.88
2022-08-20T05:00:53.206Z,40.55
2022-08-20T05:03:20.023Z,36.38
2022-08-20T05:05:47.181Z,34.17
2022-08-20T05:08:20.161Z,37.03
2022-08-20T05:10:47.287Z,35.15
2022-08-20T05:13:13.712Z,41.95
2022-08-20T05:15:40.394Z,37.35
2022-08-20T05:18:08.512Z,34.72
2022-08-20T05:20:38.772Z,36.40
2022-08-20T05:23:06.757Z,42.03
2022-08-20T05:25:33.569Z,40.80
2022-08-20T05:28:02.077Z,38.67
2022-08-20T05:30:33.477Z,37.08
2022-08-20T05:33:01.865Z,37.35
2022-08-20T05:35:29.085Z,34.65
2022-08-20T05:37:55.964Z,37.78
2022-08-20T05:40:22.953Z,34.55
2022-08-20T05:42:49.837Z,40.38
2022-08-20T05:45:17.890Z,34.60
2022-08-20T05:47:44.610Z,43.88
2022-08-20T05:50:23.206Z,36.22
2022-08-20T05:52:50.058Z,31.42
2022-08-20T05:55:16.838Z,33.00
2022-08-20T05:57:43.255Z,37.78
2022-08-20T06:00:12.032Z,37.22
2022-08-20T06:02:57.742Z,31.63
2022-08-20T06:05:24.358Z,32.58
2022-08-20T06:07:50.964Z,33.97
2022-08-20T06:10:21.328Z,33.78
2022-08-20T06:12:47.758Z,33.58
2022-08-20T06:15:15.637Z,31.13
2022-08-20T06:17:42.091Z,29.88
2022-08-20T06:20:09.321Z,26.50
2022-08-20T06:22:36.107Z,28.13
2022-08-20T06:25:02.638Z,30.60
2022-08-20T06:27:29.592Z,30.58
2022-08-20T06:29:56.021Z,29.25
2022-08-20T06:32:32.441Z,27.77
2022-08-20T06:35:01.980Z,28.08
2022-08-20T06:37:31.588Z,29.48
2022-08-20T06:40:06.965Z,25.63
2022-08-20T06:42:33.416Z,26.55
2022-08-20T06:45:04.582Z,26.63
2022-08-20T06:47:31.269Z,25.07
2022-08-20T06:49:58.034Z,24.38
2022-08-20T06:52:51.506Z,20.92
2022-08-20T06:55:11.296Z,21.58
2022-08-20T06:57:38.528Z,24.13
2022-08-20T07:00:14.303Z,22.90
2022-08-20T07:02:41.163Z,21.85
2022-08-20T07:05:08.117Z,27.02
2022-08-20T07:07:34.642Z,23.13
2022-08-20T07:10:03.977Z,23.20
2022-08-20T07:12:30.388Z,23.88
2022-08-20T07:14:56.828Z,27.75
2022-08-20T07:17:24.250Z,22.10
2022-08-20T07:19:50.760Z,22.75
2022-08-20T07:22:17.533Z,23.83
2022-08-20T07:24:48.930Z,23.77
2022-08-20T07:27:20.840Z,21.98
2022-08-20T07:30:08.211Z,24.45
2022-08-20T07:32:45.166Z,22.23
2022-08-20T07:35:14.686Z,21.45
2022-08-20T07:37:43.146Z,22.13
2022-08-20T07:40:16.091Z,22.20
2022-08-20T07:42:42.546Z,21.25
2022-08-20T07:45:11.643Z,24.50
2022-08-20T07:47:39.672Z,21.20
2022-08-20T07:50:06.953Z,22.73
2022-08-20T07:52:35.267Z,23.33
2022-08-20T07:55:06.673Z,22.88
2022-08-20T07:57:33.119Z,23.65
2022-08-20T08:00:00.305Z,23.15
2022-08-20T08:02:27.845Z,22.23
2022-08-20T08:04:54.864Z,22.05
2022-08-20T08:07:22.213Z,19.80
2022-08-20T08:09:49.908Z,24.85
2022-08-20T08:12:17.137Z,24.58
2022-08-20T08:14:45.008Z,22.90
2022-08-20T08:17:12.536Z,23.67
2022-08-20T08:19:46.688Z,23.13
2022-08-20T08:22:16.228Z,23.33
2022-08-20T08:24:56.688Z,19.90
2022-08-20T08:27:24.069Z,21.60
2022-08-20T08:29:50.480Z,20.45
2022-08-20T08:32:17.094Z,22.35
2022-08-20T08:34:44.869Z,24.55
2022-08-20T08:37:11.687Z,23.90
2022-08-20T08:39:38.590Z,22.10
2022-08-20T08:42:20.592Z,21.30
2022-08-20T08:44:48.053Z,19.67
2022-08-20T08:47:25.077Z,25.67
2022-08-20T08:49:51.498Z,23.23
2022-08-20T08:52:24.856Z,26.17
2022-08-20T08:54:56.861Z,20.55
2022-08-20T08:57:24.120Z,19.30
2022-08-20T09:00:04.158Z,20.85
2022-08-20T09:02:32.439Z,20.83
2022-08-20T09:05:01.253Z,19.38
2022-08-20T09:07:31.248Z,21.42
2022-08-20T09:09:57.670Z,19.00
2022-08-20T09:12:27.677Z,19.08
2022-08-20T09:14:54.461Z,18.75
2022-08-20T09:17:22.611Z,17.40
2022-08-20T09:19:50.223Z,17.30
2022-08-20T09:22:19.464Z,15.45
2022-08-20T09:24:46.579Z,15.00
2022-08-20T09:27:13.248Z,14.68
2022-08-20T09:29:39.944Z,12.07
2022-08-20T09:32:13.308Z,13.35
2022-08-20T09:34:45.641Z,12.55
2022-08-20T09:37:12.453Z,13.10
2022-08-20T09:39:39.203Z,13.45
2022-08-20T09:42:14.759Z,13.75
2022-08-20T09:44:41.342Z,16.65
2022-08-20T09:47:07.940Z,16.65
2022-08-20T09:49:34.510Z,16.48
2022-08-20T09:52:01.442Z,15.82
2022-08-20T09:54:30.090Z,15.43
2022-08-20T09:57:04.958Z,14.07
2022-08-20T09:59:32.401Z,14.15
2022-08-20T10:01:58.952Z,15.07
2022-08-20T10:04:25.437Z,14.40
2022-08-20T10:06:51.859Z,15.13
2022-08-20T10:09:18.632Z,15.65
2022-08-20T10:11:45.078Z,16.35
2022-08-20T10:14:11.526Z,17.88
2022-08-20T10:16:37.922Z,18.25
2022-08-20T10:19:05.093Z,18.30
2022-08-20T10:21:35.400Z,18.88
2022-08-20T10:24:05.069Z,16.38
2022-08-20T10:26:31.548Z,16.13
2022-08-20T10:28:57.973Z,17.70
2022-08-20T10:31:24.508Z,17.70
2022-08-20T10:33:50.950Z,17.67
2022-08-20T10:36:18.200Z,19.15
2022-08-20T10:38:45.158Z,19.02
2022-08-20T10:41:11.854Z,17.80
2022-08-20T10:43:38.281Z,15.88
2022-08-20T10:46:04.820Z,14.90
2022-08-20T10:48:31.498Z,20.83
2022-08-20T10:50:58.028Z,30.90
2022-08-20T10:53:24.480Z,30.25
2022-08-20T10:55:53.414Z,19.88
2022-08-20T10:58:20.245Z,20.67
2022-08-20T11:00:50.829Z,23.45
2022-08-20T11:03:17.240Z,29.25
2022-08-20T11:05:43.651Z,31.38
2022-08-20T11:08:10.084Z,30.27
2022-08-20T11:10:38.225Z,31.25
2022-08-20T11:13:06.295Z,31.08
2022-08-20T11:15:34.409Z,30.38
2022-08-20T11:18:01.216Z,30.33
2022-08-20T11:20:27.773Z,32.25
2022-08-20T11:22:54.550Z,32.58
2022-08-20T11:25:21.291Z,35.08
2022-08-20T11:27:50.587Z,35.17
2022-08-20T11:30:26.386Z,37.45
2022-08-20T11:32:53.110Z,34.50
2022-08-20T11:38:08.066Z,36.00
2022-08-20T11:40:34.465Z,39.00
2022-08-20T11:43:17.499Z,43.83
2022-08-20T11:45:46.307Z,44.13
2022-08-20T11:48:13.334Z,43.65
2022-08-20T11:50:39.809Z,45.47
2022-08-20T11:53:06.230Z,48.00
2022-08-20T11:55:34.483Z,43.70
2022-08-20T11:58:01.816Z,39.80
2022-08-20T12:00:32.678Z,36.92
2022-08-20T12:03:05.583Z,36.60
2022-08-20T12:05:36.170Z,36.42
2022-08-20T12:08:03.248Z,32.13
2022-08-20T12:10:29.939Z,33.03
2022-08-20T12:12:57.092Z,33.35
2022-08-20T12:15:24.070Z,30.98
2022-08-20T12:17:50.479Z,32.33
2022-08-20T12:20:16.925Z,27.45
2022-08-20T12:22:44.614Z,26.33
2022-08-20T12:25:11.981Z,26.20
2022-08-20T12:27:39.326Z,25.08
2022-08-20T12:30:10.161Z,23.45
2022-08-20T12:32:36.611Z,20.10
2022-08-20T12:35:04.885Z,18.75
2022-08-20T12:37:31.916Z,16.77
2022-08-20T12:40:00.588Z,17.58
2022-08-20T12:42:29.152Z,15.25
2022-08-20T12:44:55.601Z,15.70
2022-08-20T12:47:26.318Z,15.05
2022-08-20T12:50:00.321Z,18.20
2022-08-20T12:52:28.518Z,19.13
2022-08-20T12:54:55.345Z,19.45
2022-08-20T12:57:34.170Z,19.02
2022-08-20T13:00:07.784Z,18.40
2022-08-20T13:02:34.189Z,17.70
2022-08-20T13:05:04.822Z,19.48
2022-08-20T13:07:32.398Z,17.08
2022-08-20T13:09:59.234Z,13.48
2022-08-20T13:12:25.670Z,10.02
2022-08-20T13:14:52.083Z,11.90
2022-08-20T13:17:18.811Z,9.68
2022-08-20T13:19:45.940Z,6.97
2022-08-20T13:22:14.625Z,7.07
2022-08-20T13:24:42.016Z,6.38
2022-08-20T13:27:14.160Z,7.00
2022-08-20T13:29:54.000Z,7.70
2022-08-20T13:32:23.442Z,5.55
2022-08-20T13:34:50.207Z,7.97
2022-08-20T13:37:24.505Z,6.70
2022-08-20T13:39:51.755Z,8.95
2022-08-20T13:42:18.260Z,5.78
2022-08-20T13:44:44.674Z,5.68
2022-08-20T13:47:28.497Z,6.00
2022-08-20T13:50:00.465Z,7.47
2022-08-20T13:52:27.442Z,6.80
2022-08-20T13:54:53.956Z,8.45
2022-08-20T13:57:21.764Z,6.57
2022-08-20T13:59:49.710Z,6.32
2022-08-20T14:02:17.318Z,5.25
2022-08-20T14:04:44.137Z,5.03
2022-08-20T14:07:19.218Z,5.20
2022-08-20T14:09:47.964Z,5.53
2022-08-20T14:12:15.164Z,5.50
2022-08-20T14:14:42.263Z,8.85
2022-08-20T14:17:15.108Z,6.18
2022-08-20T14:19:42.090Z,5.22
2022-08-20T14:22:08.596Z,8.52
2022-08-20T14:24:35.817Z,5.63
2022-08-20T14:27:06.829Z,5.28
2022-08-20T14:29:37.860Z,5.15
2022-08-20T14:32:05.383Z,4.22
2022-08-20T14:34:32.135Z,4.28
2022-08-20T14:37:17.064Z,4.03
2022-08-20T14:39:45.372Z,6.97
2022-08-20T14:42:12.876Z,5.85
2022-08-20T14:44:40.017Z,4.90
2022-08-20T14:47:22.683Z,6.25
2022-08-20T14:49:50.829Z,4.15
2022-08-20T14:52:18.988Z,5.93
2022-08-20T14:54:45.996Z,5.15
2022-08-20T14:57:14.518Z,6.30
2022-08-20T14:59:41.746Z,7.80
2022-08-20T15:02:10.047Z,6.85
2022-08-20T15:04:37.138Z,4.85
2022-08-20T15:07:08.100Z,5.95
2022-08-20T15:09:40.011Z,6.88
2022-08-20T15:12:06.523Z,5.53
2022-08-20T15:14:32.948Z,6.55
2022-08-20T15:17:00.032Z,4.65
2022-08-20T15:19:26.455Z,8.38
2022-08-20T15:21:52.880Z,8.07
2022-08-20T15:24:19.766Z,6.40
2022-08-20T15:26:46.487Z,6.55
2022-08-20T15:29:13.168Z,7.60
2022-08-20T15:31:49.477Z,4.93
2022-08-20T15:34:18.143Z,6.78
2022-08-20T15:36:45.296Z,9.25
2022-08-20T15:39:11.741Z,4.03
2022-08-20T15:41:38.168Z,5.95
2022-08-20T15:44:04.619Z,6.07
2022-08-20T15:46:36.258Z,6.72
2022-08-20T15:49:08.388Z,7.15
2022-08-20T15:51:41.192Z,5.78
2022-08-20T15:54:13.974Z,3.50
2022-08-20T15:57:08.542Z,6.70
2022-08-20T15:59:44.988Z,4.35
2022-08-20T16:02:25.691Z,9.43
2022-08-20T16:05:04.425Z,6.80
2022-08-20T16:07:59.346Z,4.97
2022-08-20T16:10:49.906Z,10.98
2022-08-20T16:13:31.734Z,4.95
2022-08-20T16:16:01.057Z,5.65
2022-08-20T16:18:31.896Z,5.32
2022-08-20T16:21:03.102Z,3.97
2022-08-20T16:26:39.494Z,7.47
2022-08-20T16:29:10.493Z,5.38
2022-08-20T16:31:55.147Z,5.22
2022-08-20T16:34:34.059Z,8.45
2022-08-20T16:37:22.880Z,7.88
2022-08-20T16:39:54.411Z,6.13
2022-08-20T16:42:22.754Z,5.72
2022-08-20T16:44:51.107Z,6.53
2022-08-20T16:47:25.735Z,8.60
2022-08-20T16:50:01.171Z,6.50
2022-08-20T16:52:27.869Z,5.93
2022-08-20T16:54:54.492Z,6.35
2022-08-20T16:57:21.069Z,6.95
2022-08-20T17:00:15.195Z,5.80
2022-08-20T17:03:02.512Z,5.35
2022-08-20T17:05:43.869Z,6.47
2022-08-20T17:11:06.913Z,7.30
2022-08-20T17:13:36.962Z,6.45
2022-08-20T17:16:23.668Z,8.32
2022-08-20T17:18:52.930Z,5.90
2022-08-20T17:21:25.983Z,6.32
2022-08-20T17:23:59.528Z,6.15
2022-08-20T17:26:37.537Z,9.35
2022-08-20T17:29:13.038Z,7.28
2022-08-20T17:31:46.958Z,5.68
2022-08-20T17:34:41.021Z,8.80
2022-08-20T17:37:19.150Z,8.73
2022-08-20T17:39:47.866Z,4.75
2022-08-20T17:42:25.484Z,4.28
2022-08-20T17:44:56.129Z,6.03
2022-08-20T17:47:31.465Z,7.75
2022-08-20T17:50:04.513Z,8.30
2022-08-20T17:52:36.365Z,10.10
2022-08-20T17:55:03.053Z,6.00
2022-08-20T17:57:33.428Z,6.35
2022-08-20T18:00:05.456Z,8.98
2022-08-20T18:02:33.540Z,8.13
2022-08-20T18:05:00.901Z,6.30
2022-08-20T18:07:33.996Z,5.18
2022-08-20T18:10:11.313Z,6.90
2022-08-20T18:13:00.249Z,7.18
2022-08-20T18:15:31.349Z,4.55
2022-08-20T18:18:03.651Z,7.67
2022-08-20T18:20:37.735Z,5.40
2022-08-20T18:23:10.389Z,11.18
2022-08-20T18:25:40.917Z,6.63
2022-08-20T18:28:21.989Z,4.45
2022-08-20T18:30:59.673Z,4.15
2022-08-20T18:33:31.756Z,4.68
2022-08-20T18:36:11.287Z,5.68
2022-08-20T18:38:41.831Z,6.22
2022-08-20T18:41:13.191Z,7.70
2022-08-20T18:43:40.305Z,6.65
2022-08-20T18:46:20.882Z,6.97
2022-08-20T18:48:56.573Z,4.30
2022-08-20T18:51:28.438Z,7.13
2022-08-20T18:53:54.915Z,4.70
2022-08-20T18:56:31.956Z,13.23
2022-08-20T18:59:06.938Z,9.32
2022-08-20T19:01:36.011Z,6.88
2022-08-20T19:04:14.900Z,7.55
2022-08-20T19:06:46.767Z,7.20
2022-08-20T19:09:50.485Z,10.10
2022-08-20T19:12:26.938Z,7.47
2022-08-20T19:15:13.435Z,6.97
2022-08-20T19:18:07.800Z,7.00
2022-08-20T19:20:36.602Z,6.80
2022-08-20T19:23:23.993Z,9.20
2022-08-20T19:25:53.780Z,8.43
2022-08-20T19:28:28.547Z,6.45
2022-08-20T19:30:56.106Z,6.70
2022-08-20T19:33:30.903Z,6.85
2022-08-20T19:36:28.141Z,7.75
2022-08-20T19:38:57.870Z,5.53
2022-08-20T19:41:31.253Z,6.57
2022-08-20T19:43:59.784Z,5.03
2022-08-20T19:46:35.210Z,5.70
2022-08-20T19:49:24.160Z,8.18
2022-08-20T19:52:21.649Z,8.15
2022-08-20T19:54:50.919Z,9.30
2022-08-20T19:57:19.110Z,10.65
2022-08-20T20:00:11.090Z,9.25
2022-08-20T20:02:38.062Z,7.05
2022-08-20T20:05:09.338Z,4.90
2022-08-20T20:07:37.741Z,4.93
2022-08-20T20:10:07.251Z,8.55
2022-08-20T20:12:34.083Z,9.15
2022-08-20T20:15:00.651Z,8.38
2022-08-20T20:17:31.815Z,8.68
2022-08-20T20:20:00.236Z,8.00
2022-08-20T20:22:30.994Z,9.00
2022-08-20T20:25:04.422Z,8.93
2022-08-20T20:27:32.016Z,8.20
2022-08-20T20:30:01.528Z,6.55
2022-08-20T20:32:28.086Z,10.63
2022-08-20T20:34:56.907Z,12.35
2022-08-20T20:37:49.718Z,8.23
2022-08-20T20:40:27.112Z,12.10
2022-08-20T20:42:58.238Z,10.10
2022-08-20T20:45:33.401Z,11.40
2022-08-20T20:48:00.104Z,7.63
2022-08-20T20:50:34.530Z,7.15
2022-08-20T20:53:01.518Z,9.68
2022-08-20T20:55:32.865Z,7.65
2022-08-20T20:57:59.888Z,6.18
2022-08-20T21:00:31.357Z,10.95
2022-08-20T21:02:57.910Z,6.00
2022-08-20T21:05:28.395Z,8.15
2022-08-20T21:08:00.890Z,9.77
2022-08-20T21:10:30.199Z,11.32
2022-08-20T21:12:56.767Z,8.20
2022-08-20T21:15:24.288Z,13.50
2022-08-20T21:17:50.783Z,6.32
2022-08-20T21:20:17.364Z,10.40
2022-08-20T21:22:43.878Z,9.10
2022-08-20T21:25:10.409Z,9.75
2022-08-20T21:27:37.117Z,7.25
2022-08-20T21:30:05.728Z,8.80
2022-08-20T21:32:32.326Z,7.40
2022-08-20T21:34:58.761Z,9.05
2022-08-20T21:37:25.263Z,9.65
2022-08-20T21:39:51.711Z,8.95
2022-08-20T21:42:28.525Z,11.88
2022-08-20T21:44:56.241Z,9.43
2022-08-20T21:47:22.818Z,7.35
2022-08-20T21:49:49.352Z,5.97
2022-08-20T21:52:15.784Z,7.68
2022-08-20T21:54:42.177Z,9.40
2022-08-20T21:57:14.780Z,10.40
2022-08-20T21:59:41.652Z,9.95
2022-08-20T22:02:08.319Z,9.32
2022-08-20T22:04:35.648Z,8.43
2022-08-20T22:07:02.666Z,8.13
2022-08-20T22:09:29.175Z,7.63
2022-08-20T22:12:00.039Z,9.05
2022-08-20T22:14:27.524Z,8.30
2022-08-20T22:16:53.946Z,12.98
2022-08-20T22:19:20.389Z,11.13
2022-08-20T22:21:47.175Z,11.60
2022-08-20T22:24:13.851Z,9.68
2022-08-20T22:26:41.172Z,8.45
2022-08-20T22:29:09.193Z,10.50
2022-08-20T22:31:37.866Z,9.18
2022-08-20T22:34:05.045Z,11.88
2022-08-20T22:36:31.924Z,8.43
2022-08-20T22:38:58.560Z,8.20
2022-08-20T22:41:25.309Z,5.93
2022-08-20T22:43:56.478Z,7.45
2022-08-20T22:46:26.863Z,9.63
2022-08-20T22:48:53.639Z,6.72
2022-08-20T22:51:27.312Z,7.57
2022-08-20T22:53:53.753Z,9.75
2022-08-20T22:56:21.910Z,6.63
2022-08-20T22:58:50.107Z,11.60
2022-08-20T23:01:17.599Z,8.57
2022-08-20T23:03:44.100Z,8.73
2022-08-20T23:06:10.788Z,6.20
2022-08-20T23:08:38.001Z,7.85
2022-08-20T23:11:04.491Z,12.88
2022-08-20T23:13:30.923Z,6.85
2022-08-20T23:15:57.420Z,12.55
2022-08-20T23:18:24.060Z,11.55
2022-08-20T23:20:56.396Z,8.02
2022-08-20T23:23:24.297Z,10.77
2022-08-20T23:25:51.722Z,7.07
2022-08-20T23:28:19.921Z,8.95
2022-08-20T23:30:46.864Z,9.55
2022-08-20T23:33:13.385Z,12.02
2022-08-20T23:35:40.172Z,7.50
2022-08-20T23:38:07.537Z,7.55
2022-08-20T23:40:34.335Z,10.25
2022-08-20T23:43:01.178Z,9.98
2022-08-20T23:45:28.543Z,11.85
2022-08-20T23:47:54.977Z,10.57
2022-08-20T23:50:25.700Z,14.45
2022-08-20T23:52:52.982Z,11.35
2022-08-20T23:55:20.316Z,10.43
2022-08-20T23:57:46.793Z,7.15
